Time;durP1;ratioP1;P1;durP2;ratioP2;P2;SDS_P1;SDS_P2;PMS_P1;PMS_P2;Temp;Humidity;BMP_temperature;BMP_pressure;BME280_temperature;BME280_humidity;BME280_pressure;Samples;Min_cycle;Max_cycle;Signal;HPM_P1;HPM_P2
2022/12/10 00:01:45;;;;;;;25.95;4.50;;;;;;;;;;5000718;28;20041;-73
2022/12/10 00:04:12;;;;;;;27.85;4.85;;;;;;;;;;5001364;28;20037;-72
2022/12/10 00:06:39;;;;;;;15.65;3.83;;;;;;;;;;4999892;28;20075;-72
2022/12/10 00:09:08;;;;;;;17.85;4.13;;;;;;;;;;5000418;28;20037;-72
2022/12/10 00:11:34;;;;;;;29.23;4.78;;;;;;;;;;5003398;28;20071;-76
2022/12/10 00:14:01;;;;;;;18.40;3.88;;;;;;;;;;5001657;28;20418;-73
2022/12/10 00:16:28;;;;;;;17.33;4.68;;;;;;;;;;5002484;28;20029;-73
2022/12/10 00:18:55;;;;;;;19.33;3.42;;;;;;;;;;5000746;28;20037;-73
2022/12/10 00:21:22;;;;;;;24.48;3.75;;;;;;;;;;5003557;28;20021;-72
2022/12/10 00:23:49;;;;;;;13.60;2.92;;;;;;;;;;5003321;28;20037;-72
2022/12/10 00:26:17;;;;;;;18.45;3.90;;;;;;;;;;5001897;28;20537;-72
2022/12/10 00:28:43;;;;;;;25.30;3.33;;;;;;;;;;5002627;28;20033;-72
2022/12/10 00:31:17;;;;;;;20.75;3.40;;;;;;;;;;5001059;28;20520;-78
2022/12/10 00:33:44;;;;;;;19.27;3.40;;;;;;;;;;5001920;28;20372;-75
2022/12/10 00:36:12;;;;;;;15.77;2.50;;;;;;;;;;5000518;28;20026;-72
2022/12/10 00:38:38;;;;;;;23.13;4.40;;;;;;;;;;5002609;28;20348;-79
2022/12/10 00:41:04;;;;;;;12.18;2.70;;;;;;;;;;5002512;28;20030;-77
2022/12/10 00:43:30;;;;;;;18.98;3.75;;;;;;;;;;5002296;28;20014;-74
2022/12/10 00:45:57;;;;;;;17.00;3.33;;;;;;;;;;5002069;28;20091;-78
2022/12/10 00:48:23;;;;;;;13.80;2.83;;;;;;;;;;5004250;28;20024;-77
2022/12/10 00:51:00;;;;;;;18.00;3.20;;;;;;;;;;5003662;28;20045;-78
2022/12/10 00:53:27;;;;;;;15.85;3.05;;;;;;;;;;5004043;28;20910;-78
2022/12/10 00:55:54;;;;;;;12.57;3.03;;;;;;;;;;5001132;28;20022;-78
2022/12/10 00:58:20;;;;;;;19.48;3.00;;;;;;;;;;5004360;28;20060;-77
2022/12/10 01:00:47;;;;;;;18.48;3.25;;;;;;;;;;5004272;28;20022;-78
2022/12/10 01:03:13;;;;;;;15.73;3.78;;;;;;;;;;5004325;28;20022;-72
2022/12/10 01:05:39;;;;;;;17.13;2.80;;;;;;;;;;5003823;28;20042;-74
2022/12/10 01:08:06;;;;;;;19.02;3.83;;;;;;;;;;5003913;28;20454;-73
2022/12/10 01:10:32;;;;;;;17.20;4.00;;;;;;;;;;5002159;28;20498;-74
2022/12/10 01:12:58;;;;;;;14.90;2.90;;;;;;;;;;5002411;28;20030;-74
2022/12/10 01:15:24;;;;;;;13.98;3.00;;;;;;;;;;5003531;28;20093;-75
2022/12/10 01:17:50;;;;;;;17.00;2.97;;;;;;;;;;5004022;28;20049;-80
2022/12/10 01:20:16;;;;;;;20.85;3.38;;;;;;;;;;4997311;28;20018;-72
2022/12/10 01:22:42;;;;;;;16.20;3.63;;;;;;;;;;5002463;28;20029;-72
2022/12/10 01:25:09;;;;;;;16.02;3.40;;;;;;;;;;5003086;28;20058;-75
2022/12/10 01:27:36;;;;;;;12.32;2.92;;;;;;;;;;5003860;28;20137;-72
2022/12/10 01:30:03;;;;;;;17.50;3.67;;;;;;;;;;5003326;28;20040;-75
2022/12/10 01:32:29;;;;;;;25.67;3.83;;;;;;;;;;5003750;28;20025;-73
2022/12/10 01:34:55;;;;;;;16.65;2.72;;;;;;;;;;5001923;28;20104;-80
2022/12/10 01:37:21;;;;;;;12.85;2.70;;;;;;;;;;5003652;28;20031;-73
2022/12/10 01:39:47;;;;;;;15.13;3.72;;;;;;;;;;5003530;28;20022;-71
2022/12/10 01:42:14;;;;;;;15.35;2.40;;;;;;;;;;5003371;28;20018;-77
2022/12/10 01:44:43;;;;;;;15.32;3.03;;;;;;;;;;5000155;28;20026;-72
2022/12/10 01:47:10;;;;;;;22.77;3.22;;;;;;;;;;5003456;28;20022;-78
2022/12/10 01:49:40;;;;;;;14.93;3.00;;;;;;;;;;5006198;28;20029;-78
2022/12/10 01:52:08;;;;;;;15.52;3.00;;;;;;;;;;5006836;28;20038;-80
2022/12/10 01:54:36;;;;;;;18.50;3.00;;;;;;;;;;5005824;28;20421;-72
2022/12/10 01:57:08;;;;;;;12.60;2.50;;;;;;;;;;5006461;28;20095;-71
2022/12/10 01:59:35;;;;;;;14.25;2.30;;;;;;;;;;5005504;28;20033;-77
2022/12/10 02:02:17;;;;;;;12.23;2.83;;;;;;;;;;5006715;28;20021;-81
2022/12/10 02:04:52;;;;;;;19.42;3.17;;;;;;;;;;5006398;28;20071;-72
2022/12/10 02:07:23;;;;;;;15.48;3.25;;;;;;;;;;5006465;28;20032;-72
2022/12/10 02:09:55;;;;;;;12.07;2.53;;;;;;;;;;5006456;28;20431;-71
2022/12/10 02:12:24;;;;;;;14.52;3.33;;;;;;;;;;5004945;28;20443;-72
2022/12/10 02:14:56;;;;;;;13.93;2.78;;;;;;;;;;5006470;28;20158;-71
2022/12/10 02:17:38;;;;;;;17.38;2.72;;;;;;;;;;5006423;28;20037;-80
2022/12/10 02:20:27;;;;;;;15.20;3.25;;;;;;;;;;5006252;28;20054;-80
2022/12/10 02:23:20;;;;;;;13.43;3.28;;;;;;;;;;4994291;28;20030;-75
2022/12/10 02:25:48;;;;;;;13.23;3.10;;;;;;;;;;5000397;28;20406;-72
2022/12/10 02:28:30;;;;;;;21.35;2.92;;;;;;;;;;5005965;28;20037;-78
2022/12/10 02:30:56;;;;;;;19.55;2.63;;;;;;;;;;5005926;28;20064;-73
2022/12/10 02:33:24;;;;;;;22.15;2.58;;;;;;;;;;5006112;28;20022;-76
2022/12/10 02:35:51;;;;;;;11.18;2.10;;;;;;;;;;5006106;28;20026;-76
2022/12/10 02:38:25;;;;;;;13.93;2.83;;;;;;;;;;5002405;28;20386;-70
2022/12/10 02:40:55;;;;;;;17.30;2.97;;;;;;;;;;5005645;28;20029;-78
2022/12/10 02:43:22;;;;;;;14.68;2.80;;;;;;;;;;5004849;28;20030;-72
2022/12/10 02:45:49;;;;;;;14.25;2.90;;;;;;;;;;5004141;28;20025;-72
2022/12/10 02:48:15;;;;;;;13.05;2.83;;;;;;;;;;4999324;28;20483;-72
2022/12/10 02:50:41;;;;;;;10.95;2.53;;;;;;;;;;4995673;28;20021;-78
2022/12/10 02:53:08;;;;;;;13.20;3.65;;;;;;;;;;5003169;28;20026;-71
2022/12/10 02:56:00;;;;;;;12.52;2.25;;;;;;;;;;5003299;28;20018;-72
2022/12/10 02:58:35;;;;;;;21.77;3.00;;;;;;;;;;4980536;28;20041;-77
2022/12/10 03:01:04;;;;;;;13.25;2.83;;;;;;;;;;5004176;28;20025;-71
2022/12/10 03:03:33;;;;;;;16.42;2.53;;;;;;;;;;5006075;28;20032;-71
2022/12/10 03:06:09;;;;;;;8.90;2.10;;;;;;;;;;5005593;28;20500;-71
2022/12/10 03:08:41;;;;;;;10.80;2.08;;;;;;;;;;5001065;28;20534;-75
2022/12/10 03:11:18;;;;;;;9.80;2.13;;;;;;;;;;5003820;28;20386;-79
2022/12/10 03:13:44;;;;;;;13.73;2.90;;;;;;;;;;5005171;28;20014;-77
2022/12/10 03:16:11;;;;;;;17.48;3.00;;;;;;;;;;5005083;28;20113;-71
2022/12/10 03:18:37;;;;;;;14.85;3.28;;;;;;;;;;5006196;28;20026;-71
2022/12/10 03:21:05;;;;;;;18.52;2.60;;;;;;;;;;5001777;28;20025;-71
2022/12/10 03:23:33;;;;;;;12.27;2.58;;;;;;;;;;5003469;28;20049;-73
2022/12/10 03:26:01;;;;;;;18.83;2.78;;;;;;;;;;5005041;28;20033;-77
2022/12/10 03:28:27;;;;;;;17.15;2.60;;;;;;;;;;5005404;28;20038;-74
2022/12/10 03:30:54;;;;;;;10.25;2.50;;;;;;;;;;5005421;28;20395;-71
2022/12/10 03:33:20;;;;;;;22.15;3.35;;;;;;;;;;5005215;28;20026;-78
2022/12/10 03:35:47;;;;;;;13.48;2.75;;;;;;;;;;5004893;28;20026;-78
2022/12/10 03:38:14;;;;;;;23.90;3.35;;;;;;;;;;5002194;28;20022;-78
2022/12/10 03:40:40;;;;;;;17.25;3.15;;;;;;;;;;5005089;28;20022;-71
2022/12/10 03:43:07;;;;;;;20.05;3.95;;;;;;;;;;5005530;28;20604;-71
2022/12/10 03:45:33;;;;;;;19.42;4.03;;;;;;;;;;5001836;28;20502;-71
2022/12/10 03:47:59;;;;;;;30.42;3.65;;;;;;;;;;5004571;28;20401;-77
2022/12/10 03:50:25;;;;;;;33.58;3.60;;;;;;;;;;5003908;28;20033;-78
2022/12/10 03:52:51;;;;;;;32.00;4.40;;;;;;;;;;5003530;28;20045;-72
2022/12/10 03:55:17;;;;;;;30.50;3.42;;;;;;;;;;5001897;28;20037;-71
2022/12/10 03:57:43;;;;;;;20.25;4.28;;;;;;;;;;5002250;28;20029;-71
2022/12/10 04:00:10;;;;;;;25.20;4.22;;;;;;;;;;5004732;28;20066;-79
2022/12/10 04:02:36;;;;;;;23.77;3.88;;;;;;;;;;5003329;28;20018;-71
2022/12/10 04:05:04;;;;;;;24.92;4.78;;;;;;;;;;5004419;28;20022;-77
2022/12/10 04:07:30;;;;;;;17.75;3.83;;;;;;;;;;5002651;28;20072;-71
2022/12/10 04:09:56;;;;;;;21.90;3.97;;;;;;;;;;5004199;28;20032;-78
2022/12/10 04:12:22;;;;;;;25.80;3.88;;;;;;;;;;5002857;28;20042;-71
2022/12/10 04:17:33;;;;;;;21.20;3.47;;;;;;;;;;4999017;28;20125;-78
2022/12/10 04:20:00;;;;;;;22.80;4.90;;;;;;;;;;4996818;28;20029;-76
2022/12/10 04:27:57;;;;;;;19.15;3.92;;;;;;;;;;5002494;28;20113;-76
2022/12/10 04:30:23;;;;;;;24.58;3.88;;;;;;;;;;5001783;28;20033;-76
2022/12/10 04:32:49;;;;;;;20.05;3.30;;;;;;;;;;5014169;28;20038;-76
2022/12/10 04:35:15;;;;;;;22.35;4.32;;;;;;;;;;5001587;28;20105;-74
2022/12/10 04:37:41;;;;;;;22.25;3.97;;;;;;;;;;5001330;28;20025;-71
2022/12/10 04:40:08;;;;;;;22.55;4.53;;;;;;;;;;5001619;28;20026;-71
2022/12/10 04:42:34;;;;;;;18.65;3.40;;;;;;;;;;4999998;28;20676;-75
2022/12/10 04:45:00;;;;;;;18.50;3.65;;;;;;;;;;5001506;28;20076;-71
2022/12/10 04:47:26;;;;;;;18.40;4.10;;;;;;;;;;5001510;28;20018;-71
2022/12/10 04:49:53;;;;;;;32.13;5.03;;;;;;;;;;4999127;28;20478;-78
2022/12/10 04:52:19;;;;;;;23.10;4.65;;;;;;;;;;4999398;28;20034;-74
2022/12/10 04:54:45;;;;;;;32.33;4.45;;;;;;;;;;5001768;28;20022;-73
2022/12/10 04:57:12;;;;;;;22.65;3.80;;;;;;;;;;5001136;28;20024;-71
2022/12/10 04:59:38;;;;;;;30.38;3.90;;;;;;;;;;5000694;28;20516;-71
2022/12/10 05:02:05;;;;;;;23.58;2.92;;;;;;;;;;4994163;28;20038;-73
2022/12/10 05:04:31;;;;;;;15.70;3.28;;;;;;;;;;4999956;28;20018;-71
2022/12/10 05:06:57;;;;;;;12.88;3.40;;;;;;;;;;4999096;28;20076;-71
2022/12/10 05:09:24;;;;;;;13.07;3.85;;;;;;;;;;5001559;28;20072;-72
2022/12/10 05:11:50;;;;;;;21.77;3.65;;;;;;;;;;4998299;28;20566;-75
2022/12/10 05:14:16;;;;;;;15.13;3.65;;;;;;;;;;4996013;28;20049;-72
2022/12/10 05:16:42;;;;;;;17.83;3.38;;;;;;;;;;5001246;28;20078;-75
2022/12/10 05:19:09;;;;;;;15.77;2.95;;;;;;;;;;4997826;28;20478;-75
2022/12/10 05:24:20;;;;;;;22.77;3.78;;;;;;;;;;5002145;28;20065;-74
2022/12/10 05:26:50;;;;;;;18.80;3.20;;;;;;;;;;5004793;28;20384;-72
2022/12/10 05:29:16;;;;;;;18.02;3.13;;;;;;;;;;5004940;28;20018;-71
2022/12/10 05:31:43;;;;;;;16.67;3.45;;;;;;;;;;5004814;28;20034;-72
2022/12/10 05:34:10;;;;;;;16.70;3.40;;;;;;;;;;5005346;28;20026;-72
2022/12/10 05:36:36;;;;;;;16.20;3.15;;;;;;;;;;5004382;28;20033;-71
2022/12/10 05:39:03;;;;;;;11.60;2.58;;;;;;;;;;5003497;28;20033;-76
2022/12/10 05:41:30;;;;;;;16.35;3.00;;;;;;;;;;5004276;28;20505;-73
2022/12/10 05:43:58;;;;;;;14.45;2.88;;;;;;;;;;5004288;28;20061;-71
2022/12/10 05:46:25;;;;;;;11.63;2.90;;;;;;;;;;5003011;28;20030;-72
2022/12/10 05:48:52;;;;;;;17.83;3.17;;;;;;;;;;5004796;28;20013;-77
2022/12/10 05:51:20;;;;;;;18.52;4.03;;;;;;;;;;5004469;28;20042;-75
2022/12/10 05:53:46;;;;;;;15.40;3.00;;;;;;;;;;5004502;28;20025;-77
2022/12/10 05:56:14;;;;;;;18.75;3.03;;;;;;;;;;5004826;28;20028;-72
2022/12/10 05:58:41;;;;;;;13.32;2.88;;;;;;;;;;5002882;28;20570;-76
2022/12/10 06:01:08;;;;;;;21.90;3.45;;;;;;;;;;5004297;28;20033;-75
2022/12/10 06:03:34;;;;;;;18.50;4.32;;;;;;;;;;5003805;28;20086;-71
2022/12/10 06:06:01;;;;;;;16.17;2.58;;;;;;;;;;4995617;28;20030;-76
2022/12/10 06:08:27;;;;;;;9.07;2.70;;;;;;;;;;5002396;28;20743;-76
2022/12/10 06:10:53;;;;;;;14.98;2.80;;;;;;;;;;5003620;28;20373;-76
2022/12/10 06:13:20;;;;;;;11.45;2.45;;;;;;;;;;5000002;28;20061;-72
2022/12/10 06:15:46;;;;;;;11.95;2.40;;;;;;;;;;5001307;28;20597;-72
2022/12/10 06:18:12;;;;;;;14.40;2.72;;;;;;;;;;5004686;28;20026;-73
2022/12/10 06:20:39;;;;;;;18.02;2.72;;;;;;;;;;5003792;28;20029;-71
2022/12/10 06:23:06;;;;;;;12.02;2.88;;;;;;;;;;5003128;28;20026;-71
2022/12/10 06:25:32;;;;;;;11.20;2.50;;;;;;;;;;5001498;28;20026;-74
2022/12/10 06:27:58;;;;;;;20.80;2.85;;;;;;;;;;5002644;28;20025;-75
2022/12/10 06:30:25;;;;;;;18.10;3.53;;;;;;;;;;5003660;28;20037;-78
2022/12/10 06:32:51;;;;;;;20.95;2.97;;;;;;;;;;5003332;28;20040;-73
2022/12/10 06:35:17;;;;;;;12.35;2.42;;;;;;;;;;5001827;28;20132;-76
2022/12/10 06:37:43;;;;;;;7.97;2.63;;;;;;;;;;5003514;28;20026;-76
2022/12/10 06:40:10;;;;;;;15.30;2.47;;;;;;;;;;5002054;28;20028;-77
2022/12/10 06:42:36;;;;;;;14.80;2.65;;;;;;;;;;5003737;28;20034;-76
2022/12/10 06:45:02;;;;;;;8.52;2.47;;;;;;;;;;5003060;28;20028;-74
2022/12/10 06:47:28;;;;;;;16.55;2.97;;;;;;;;;;4993632;28;20037;-75
2022/12/10 06:49:55;;;;;;;12.48;2.55;;;;;;;;;;5003702;28;20030;-72
2022/12/10 06:52:21;;;;;;;14.00;2.15;;;;;;;;;;4999049;28;20030;-71
2022/12/10 06:54:47;;;;;;;16.92;2.25;;;;;;;;;;5001171;28;20168;-74
2022/12/10 06:57:13;;;;;;;46.20;6.03;;;;;;;;;;5003160;28;20026;-76
2022/12/10 06:59:39;;;;;;;27.73;3.90;;;;;;;;;;5003333;28;20097;-73
2022/12/10 07:02:05;;;;;;;14.88;3.03;;;;;;;;;;5003272;28;20025;-76
2022/12/10 07:04:32;;;;;;;30.55;3.78;;;;;;;;;;4998604;28;20022;-73
2022/12/10 07:06:58;;;;;;;16.75;3.08;;;;;;;;;;5002856;28;20671;-75
2022/12/10 07:09:24;;;;;;;16.20;1.92;;;;;;;;;;5002834;28;20608;-75
2022/12/10 07:11:50;;;;;;;9.60;2.08;;;;;;;;;;4994290;28;20038;-79
2022/12/10 07:14:17;;;;;;;9.68;2.05;;;;;;;;;;5001951;28;20030;-74
2022/12/10 07:16:43;;;;;;;10.02;2.47;;;;;;;;;;4994693;28;20055;-73
2022/12/10 07:19:10;;;;;;;12.80;2.40;;;;;;;;;;5000564;28;20014;-73
2022/12/10 07:21:37;;;;;;;11.65;2.40;;;;;;;;;;5001495;28;20530;-75
2022/12/10 07:24:08;;;;;;;14.38;2.00;;;;;;;;;;5002711;28;20129;-73
2022/12/10 07:26:35;;;;;;;8.17;2.20;;;;;;;;;;5001776;28;20052;-72
2022/12/10 07:29:03;;;;;;;5.63;1.48;;;;;;;;;;5002589;28;20093;-72
2022/12/10 07:31:29;;;;;;;12.35;1.80;;;;;;;;;;5001176;28;20422;-72
2022/12/10 07:33:57;;;;;;;9.73;2.08;;;;;;;;;;5002468;28;20517;-72
2022/12/10 07:36:24;;;;;;;13.35;2.22;;;;;;;;;;5001028;28;20026;-72
2022/12/10 07:38:51;;;;;;;10.52;2.20;;;;;;;;;;5002333;28;20413;-74
2022/12/10 07:41:17;;;;;;;12.63;2.47;;;;;;;;;;5002485;28;20021;-72
2022/12/10 07:43:44;;;;;;;9.40;2.40;;;;;;;;;;5002131;28;20101;-72
2022/12/10 07:46:13;;;;;;;9.15;1.85;;;;;;;;;;4992785;28;20029;-73
2022/12/10 07:48:40;;;;;;;8.15;1.90;;;;;;;;;;5002595;28;20014;-72
2022/12/10 07:51:07;;;;;;;11.65;2.45;;;;;;;;;;5002716;28;20026;-72
2022/12/10 07:53:33;;;;;;;8.27;1.70;;;;;;;;;;5002458;28;20030;-72
2022/12/10 07:56:00;;;;;;;13.48;2.13;;;;;;;;;;5001624;28;20466;-71
2022/12/10 07:58:26;;;;;;;7.93;2.47;;;;;;;;;;5000926;28;20030;-72
2022/12/10 08:00:52;;;;;;;11.02;2.20;;;;;;;;;;4999930;28;20026;-75
2022/12/10 08:03:18;;;;;;;12.93;2.42;;;;;;;;;;5002598;28;20592;-71
2022/12/10 08:05:44;;;;;;;9.93;2.15;;;;;;;;;;5001923;28;20060;-71
2022/12/10 08:08:11;;;;;;;10.75;2.72;;;;;;;;;;5001618;28;20026;-71
2022/12/10 08:10:38;;;;;;;11.32;2.30;;;;;;;;;;5002574;28;20025;-72
2022/12/10 08:13:04;;;;;;;12.32;2.42;;;;;;;;;;5001021;28;20090;-72
2022/12/10 08:15:30;;;;;;;11.18;2.88;;;;;;;;;;5002228;28;20160;-71
2022/12/10 08:17:57;;;;;;;14.27;2.38;;;;;;;;;;5001998;28;20018;-71
2022/12/10 08:20:24;;;;;;;12.82;2.30;;;;;;;;;;5001935;28;20482;-72
2022/12/10 08:22:50;;;;;;;11.18;2.40;;;;;;;;;;5001556;28;20502;-74
2022/12/10 08:25:16;;;;;;;21.00;3.10;;;;;;;;;;5001883;28;20803;-72
2022/12/10 08:27:43;;;;;;;13.98;2.22;;;;;;;;;;5000382;28;20042;-73
2022/12/10 08:30:09;;;;;;;18.95;3.10;;;;;;;;;;5002110;28;20028;-72
2022/12/10 08:32:35;;;;;;;15.18;2.53;;;;;;;;;;5002274;28;20394;-72
2022/12/10 08:35:02;;;;;;;12.18;2.58;;;;;;;;;;5002021;28;20474;-73
2022/12/10 08:37:28;;;;;;;15.45;2.60;;;;;;;;;;5000666;28;20450;-76
2022/12/10 08:39:54;;;;;;;13.27;2.33;;;;;;;;;;5000135;28;20080;-72
2022/12/10 08:42:20;;;;;;;8.77;2.17;;;;;;;;;;5002163;28;20026;-72
2022/12/10 08:44:46;;;;;;;11.82;2.92;;;;;;;;;;5001722;28;20037;-75
2022/12/10 08:47:12;;;;;;;13.00;2.78;;;;;;;;;;5001250;28;20026;-71
2022/12/10 08:49:39;;;;;;;19.40;3.45;;;;;;;;;;5002197;28;20080;-72
2022/12/10 08:52:05;;;;;;;13.85;2.90;;;;;;;;;;4999887;28;20034;-72
2022/12/10 08:54:31;;;;;;;18.75;2.75;;;;;;;;;;5001661;28;20017;-72
2022/12/10 08:56:57;;;;;;;18.33;2.70;;;;;;;;;;5000599;28;20474;-71
2022/12/10 08:59:23;;;;;;;14.05;2.58;;;;;;;;;;5005611;28;20105;-73
2022/12/10 09:01:52;;;;;;;10.05;2.63;;;;;;;;;;5006185;28;20088;-72
2022/12/10 09:04:18;;;;;;;15.68;2.58;;;;;;;;;;5005907;28;20087;-72
2022/12/10 09:06:44;;;;;;;16.52;3.60;;;;;;;;;;5003779;28;20071;-72
2022/12/10 09:09:10;;;;;;;23.52;3.00;;;;;;;;;;5005253;28;20028;-72
2022/12/10 09:11:36;;;;;;;18.38;2.97;;;;;;;;;;5006225;28;20036;-74
2022/12/10 09:14:03;;;;;;;25.40;3.72;;;;;;;;;;5005145;28;20030;-72
2022/12/10 09:16:33;;;;;;;18.17;3.65;;;;;;;;;;5005221;28;20041;-72
2022/12/10 09:18:59;;;;;;;22.50;3.63;;;;;;;;;;5005153;28;20033;-73
2022/12/10 09:21:26;;;;;;;14.90;3.25;;;;;;;;;;5004119;28;20464;-72
2022/12/10 09:23:52;;;;;;;19.85;3.47;;;;;;;;;;5004041;28;20117;-77
2022/12/10 09:26:19;;;;;;;14.15;2.90;;;;;;;;;;5004747;28;20033;-72
2022/12/10 09:28:46;;;;;;;15.43;3.30;;;;;;;;;;5005288;28;20026;-73
2022/12/10 09:31:12;;;;;;;23.88;3.72;;;;;;;;;;5003597;28;20026;-72
2022/12/10 09:33:39;;;;;;;16.20;3.33;;;;;;;;;;5005036;28;20022;-71
2022/12/10 09:36:06;;;;;;;18.95;3.83;;;;;;;;;;5005068;28;20032;-75
2022/12/10 09:38:36;;;;;;;21.10;4.03;;;;;;;;;;5005148;28;20022;-72
2022/12/10 09:41:04;;;;;;;18.05;3.60;;;;;;;;;;5004885;28;20026;-72
2022/12/10 09:43:30;;;;;;;21.25;4.53;;;;;;;;;;5005071;28;20010;-72
2022/12/10 09:46:05;;;;;;;16.13;3.85;;;;;;;;;;5003518;28;20553;-72
2022/12/10 09:48:38;;;;;;;18.27;3.67;;;;;;;;;;5000786;28;20097;-72
2022/12/10 09:51:12;;;;;;;20.00;3.60;;;;;;;;;;5004346;28;20613;-76
2022/12/10 09:53:39;;;;;;;22.52;4.50;;;;;;;;;;5003286;28;20033;-72
2022/12/10 09:56:06;;;;;;;15.07;3.80;;;;;;;;;;5004643;28;20022;-72
2022/12/10 09:58:32;;;;;;;21.23;4.07;;;;;;;;;;5003559;28;20026;-72
2022/12/10 10:00:59;;;;;;;18.88;3.40;;;;;;;;;;5004659;28;20050;-72
2022/12/10 10:03:25;;;;;;;15.48;4.53;;;;;;;;;;5004407;28;20052;-72
2022/12/10 10:05:53;;;;;;;12.93;4.32;;;;;;;;;;5002804;28;20091;-72
2022/12/10 10:08:41;;;;;;;18.55;4.57;;;;;;;;;;5003670;28;20026;-76
2022/12/10 10:11:11;;;;;;;8.95;3.45;;;;;;;;;;5004016;28;20041;-73
2022/12/10 10:13:42;;;;;;;16.40;4.53;;;;;;;;;;5004583;28;20079;-77
2022/12/10 10:16:17;;;;;;;15.45;4.32;;;;;;;;;;5002843;28;20022;-72
2022/12/10 10:18:49;;;;;;;22.08;4.95;;;;;;;;;;5004520;28;20025;-73
2022/12/10 10:21:24;;;;;;;26.05;6.25;;;;;;;;;;5004050;28;20097;-72
2022/12/10 10:23:50;;;;;;;22.40;4.22;;;;;;;;;;5004268;28;20050;-73
2022/12/10 10:26:16;;;;;;;30.90;4.30;;;;;;;;;;5004105;28;20022;-72
2022/12/10 10:28:43;;;;;;;37.67;5.93;;;;;;;;;;5002679;28;20599;-72
2022/12/10 10:31:21;;;;;;;22.02;4.07;;;;;;;;;;5003396;28;20033;-72
2022/12/10 10:33:57;;;;;;;31.17;5.80;;;;;;;;;;4998770;28;20029;-74
2022/12/10 10:36:28;;;;;;;36.33;6.80;;;;;;;;;;5003725;28;20045;-72
2022/12/10 10:38:54;;;;;;;32.65;6.00;;;;;;;;;;4997604;28;20021;-72
2022/12/10 10:41:20;;;;;;;35.15;5.40;;;;;;;;;;5003734;28;20033;-73
2022/12/10 10:43:50;;;;;;;29.48;5.28;;;;;;;;;;5003838;28;20087;-72
2022/12/10 10:46:17;;;;;;;26.83;5.53;;;;;;;;;;5003840;28;20026;-76
2022/12/10 10:48:43;;;;;;;21.52;3.50;;;;;;;;;;5003517;28;20073;-76
2022/12/10 10:51:10;;;;;;;32.38;4.72;;;;;;;;;;5002206;28;20128;-72
2022/12/10 10:53:39;;;;;;;32.30;4.72;;;;;;;;;;4998085;28;20022;-72
2022/12/10 10:56:11;;;;;;;31.33;4.38;;;;;;;;;;5003604;28;20109;-72
2022/12/10 10:58:46;;;;;;;21.25;3.90;;;;;;;;;;5003534;28;20666;-72
2022/12/10 11:01:12;;;;;;;25.52;4.40;;;;;;;;;;5003618;28;20029;-72
2022/12/10 11:03:46;;;;;;;25.67;3.60;;;;;;;;;;5003592;28;20026;-73
2022/12/10 11:06:13;;;;;;;25.35;3.47;;;;;;;;;;5002365;28;20033;-72
2022/12/10 11:08:39;;;;;;;26.48;5.05;;;;;;;;;;5003276;28;20030;-72
2022/12/10 11:11:10;;;;;;;16.70;2.55;;;;;;;;;;5003119;28;20107;-72
2022/12/10 11:13:43;;;;;;;16.65;2.72;;;;;;;;;;5003533;28;20113;-72
2022/12/10 11:16:27;;;;;;;18.23;3.17;;;;;;;;;;5001823;28;20028;-72
2022/12/10 11:19:04;;;;;;;12.23;2.40;;;;;;;;;;4997610;28;20018;-72
2022/12/10 11:21:35;;;;;;;10.75;1.63;;;;;;;;;;5001211;28;20079;-72
2022/12/10 11:24:04;;;;;;;14.00;2.38;;;;;;;;;;5002933;28;20084;-72
2022/12/10 11:26:44;;;;;;;8.48;1.85;;;;;;;;;;5001878;28;20475;-73
2022/12/10 11:29:22;;;;;;;13.85;1.83;;;;;;;;;;5002620;28;20510;-77
2022/12/10 11:31:52;;;;;;;7.63;2.03;;;;;;;;;;5001508;28;20479;-74
2022/12/10 11:34:18;;;;;;;12.48;1.75;;;;;;;;;;5003069;28;20026;-72
2022/12/10 11:36:56;;;;;;;4.30;1.75;;;;;;;;;;5002342;28;20026;-72
2022/12/10 11:39:45;;;;;;;16.50;2.00;;;;;;;;;;5000941;28;20630;-75
2022/12/10 11:42:34;;;;;;;11.05;2.33;;;;;;;;;;4999831;28;20065;-74
2022/12/10 11:45:09;;;;;;;14.85;2.28;;;;;;;;;;5002286;28;20030;-75
2022/12/10 11:47:35;;;;;;;9.85;2.10;;;;;;;;;;4999458;28;20029;-72
2022/12/10 11:50:14;;;;;;;6.10;1.65;;;;;;;;;;5002419;28;20029;-72
2022/12/10 11:52:46;;;;;;;11.25;2.25;;;;;;;;;;5002471;28;20394;-75
2022/12/10 11:55:22;;;;;;;7.72;1.58;;;;;;;;;;5002690;28;20037;-71
2022/12/10 11:57:48;;;;;;;7.82;2.40;;;;;;;;;;5000959;28;20037;-75
2022/12/10 12:00:22;;;;;;;12.52;1.88;;;;;;;;;;5002586;28;20032;-74
2022/12/10 12:02:51;;;;;;;10.18;1.90;;;;;;;;;;5002418;28;20088;-72
2022/12/10 12:05:20;;;;;;;7.93;1.83;;;;;;;;;;5001063;28;20505;-73
2022/12/10 12:07:49;;;;;;;9.73;2.17;;;;;;;;;;5002018;28;20026;-76
2022/12/10 12:10:24;;;;;;;11.75;2.28;;;;;;;;;;5002246;28;20100;-76
2022/12/10 12:13:03;;;;;;;9.57;1.77;;;;;;;;;;4994949;28;20030;-75
2022/12/10 12:15:30;;;;;;;9.18;1.90;;;;;;;;;;4999306;28;20099;-73
2022/12/10 12:18:00;;;;;;;13.68;2.90;;;;;;;;;;4995690;28;20148;-74
2022/12/10 12:20:29;;;;;;;9.40;2.40;;;;;;;;;;5001649;28;20386;-73
2022/12/10 12:22:59;;;;;;;7.20;1.95;;;;;;;;;;5000623;28;20038;-73
2022/12/10 12:25:27;;;;;;;12.07;2.20;;;;;;;;;;5001789;28;20033;-73
2022/12/10 12:27:57;;;;;;;9.70;2.97;;;;;;;;;;5001372;28;20061;-72
2022/12/10 12:30:23;;;;;;;10.60;2.15;;;;;;;;;;5000254;28;20053;-72
2022/12/10 12:33:09;;;;;;;12.75;2.40;;;;;;;;;;5001803;28;20108;-74
2022/12/10 12:35:48;;;;;;;12.15;1.70;;;;;;;;;;4999961;28;20026;-72
2022/12/10 12:38:20;;;;;;;11.60;2.22;;;;;;;;;;5001379;28;20022;-75
2022/12/10 12:40:52;;;;;;;6.03;1.77;;;;;;;;;;4999482;28;20375;-72
2022/12/10 12:43:18;;;;;;;;;;;;;;;;;;5002183;28;20040;-71
2022/12/10 12:45:46;;;;;;;9.02;1.70;;;;;;;;;;5001553;28;20405;-74
2022/12/10 12:48:12;;;;;;;8.25;1.65;;;;;;;;;;5001233;28;20153;-72
2022/12/10 12:50:41;;;;;;;10.63;2.10;;;;;;;;;;4999775;28;20441;-71
2022/12/10 12:53:10;;;;;;;7.97;1.52;;;;;;;;;;5002009;28;20040;-72
2022/12/10 12:55:45;;;;;;;10.93;2.33;;;;;;;;;;5002040;28;20049;-73
2022/12/10 12:58:14;;;;;;;9.38;2.20;;;;;;;;;;5001423;28;20030;-72
2022/12/10 13:00:42;;;;;;;6.22;1.48;;;;;;;;;;5001527;28;20023;-73
2022/12/10 13:03:14;;;;;;;12.15;2.22;;;;;;;;;;5001013;28;20022;-71
2022/12/10 13:05:41;;;;;;;10.35;1.65;;;;;;;;;;5001252;28;20540;-72
2022/12/10 13:08:24;;;;;;;15.07;2.90;;;;;;;;;;5001497;28;20025;-71
2022/12/10 13:10:57;;;;;;;15.45;2.20;;;;;;;;;;4999767;28;20041;-71
2022/12/10 13:13:25;;;;;;;9.35;1.60;;;;;;;;;;5001364;28;20021;-74
2022/12/10 13:15:51;;;;;;;12.70;2.45;;;;;;;;;;5000974;28;20239;-74
2022/12/10 13:18:18;;;;;;;15.05;2.40;;;;;;;;;;5001207;28;20049;-73
2022/12/10 13:20:50;;;;;;;13.88;2.35;;;;;;;;;;5001255;28;20109;-73
2022/12/10 13:23:16;;;;;;;;;;;;;;;;;;5000402;28;20565;-75
2022/12/10 13:25:56;;;;;;;9.52;1.98;;;;;;;;;;5000184;28;20421;-75
2022/12/10 13:28:22;;;;;;;10.77;2.30;;;;;;;;;;4997011;28;20026;-74
2022/12/10 13:31:07;;;;;;;14.07;2.70;;;;;;;;;;5001091;28;20025;-72
2022/12/10 13:34:04;;;;;;;9.25;2.03;;;;;;;;;;4999439;28;20040;-72
2022/12/10 13:36:33;;;;;;;10.68;2.25;;;;;;;;;;5001136;28;20030;-72
2022/12/10 13:39:05;;;;;;;10.38;1.88;;;;;;;;;;4993386;28;20105;-72
2022/12/10 13:44:33;;;;;;;9.13;2.17;;;;;;;;;;4997306;28;20029;-75
2022/12/10 13:47:04;;;;;;;11.10;3.00;;;;;;;;;;5003237;28;20037;-72
2022/12/10 13:49:31;;;;;;;9.15;2.78;;;;;;;;;;5005025;28;20036;-72
2022/12/10 13:52:07;;;;;;;19.95;3.55;;;;;;;;;;5003331;28;20640;-72
2022/12/10 13:54:49;;;;;;;7.97;1.83;;;;;;;;;;5005024;28;20580;-75
2022/12/10 13:57:18;;;;;;;15.10;2.72;;;;;;;;;;5000723;28;20026;-72
2022/12/10 14:00:05;;;;;;;12.43;2.97;;;;;;;;;;5004377;28;20123;-72
2022/12/10 14:02:32;;;;;;;11.65;2.08;;;;;;;;;;5004506;28;20101;-74
2022/12/10 14:05:16;;;;;;;16.65;3.15;;;;;;;;;;5003061;28;20026;-72
2022/12/10 14:07:44;;;;;;;10.32;2.13;;;;;;;;;;5002507;28;20087;-74
2022/12/10 14:10:14;;;;;;;11.30;4.50;;;;;;;;;;5003918;28;20055;-73
2022/12/10 14:12:41;;;;;;;13.30;4.30;;;;;;;;;;5002646;28;20414;-72
2022/12/10 14:15:19;;;;;;;11.30;3.53;;;;;;;;;;5000893;28;20114;-71
2022/12/10 14:17:45;;;;;;;10.27;2.42;;;;;;;;;;4997910;28;20651;-71
2022/12/10 14:20:15;;;;;;;12.98;2.83;;;;;;;;;;4991922;28;20470;-71
2022/12/10 14:22:49;;;;;;;10.77;2.20;;;;;;;;;;5001165;28;20029;-71
2022/12/10 14:25:17;;;;;;;16.90;2.47;;;;;;;;;;5001840;28;20048;-71
2022/12/10 14:27:44;;;;;;;11.25;2.10;;;;;;;;;;5001341;28;20029;-72
2022/12/10 14:30:16;;;;;;;8.05;2.10;;;;;;;;;;5002041;28;20952;-71
2022/12/10 14:32:42;;;;;;;11.85;2.45;;;;;;;;;;4998088;28;20030;-72
2022/12/10 14:35:12;;;;;;;11.23;2.58;;;;;;;;;;5001996;28;20030;-72
2022/12/10 14:37:41;;;;;;;11.05;2.28;;;;;;;;;;5002497;28;20037;-72
2022/12/10 14:40:08;;;;;;;9.20;2.67;;;;;;;;;;5000547;28;20022;-72
2022/12/10 14:42:34;;;;;;;10.27;2.38;;;;;;;;;;5001859;28;20505;-73
2022/12/10 14:45:03;;;;;;;6.18;1.75;;;;;;;;;;5000790;28;20125;-72
2022/12/10 14:47:33;;;;;;;9.65;1.98;;;;;;;;;;5001097;28;20030;-72
2022/12/10 14:50:01;;;;;;;9.25;2.50;;;;;;;;;;5001556;28;20040;-72
2022/12/10 14:52:40;;;;;;;9.77;2.17;;;;;;;;;;5000535;28;20026;-72
2022/12/10 14:55:06;;;;;;;9.00;2.25;;;;;;;;;;5002594;28;20442;-73
2022/12/10 14:57:38;;;;;;;13.52;2.22;;;;;;;;;;5002579;28;20053;-72